createdAt,value
2022-11-08T00:00:17.645Z,1008.42
2022-11-08T00:01:17.618Z,1008.43
2022-11-08T00:02:17.810Z,1008.40
2022-11-08T00:03:17.667Z,1008.42
2022-11-08T00:04:17.632Z,1008.43
2022-11-08T00:05:17.570Z,1008.43
2022-11-08T00:06:17.572Z,1008.43
2022-11-08T00:07:17.548Z,1008.46
2022-11-08T00:08:17.862Z,1008.45
2022-11-08T00:09:17.559Z,1008.50
2022-11-08T00:10:17.514Z,1008.44
2022-11-08T00:11:17.502Z,1008.49
2022-11-08T00:12:17.492Z,1008.47
2022-11-08T00:13:17.471Z,1008.51
2022-11-08T00:14:17.494Z,1008.48
2022-11-08T00:15:17.452Z,1008.52
2022-11-08T00:16:17.452Z,1008.53
2022-11-08T00:17:17.430Z,1008.58
2022-11-08T00:18:17.573Z,1008.51
2022-11-08T00:19:17.458Z,1008.51
2022-11-08T00:20:17.415Z,1008.51
2022-11-08T00:21:17.409Z,1008.48
2022-11-08T00:22:17.361Z,1008.46
2022-11-08T00:23:17.372Z,1008.39
2022-11-08T00:24:17.403Z,1008.46
2022-11-08T00:25:17.341Z,1008.40
2022-11-08T00:26:17.327Z,1008.47
2022-11-08T00:27:17.311Z,1008.45
2022-11-08T00:28:17.524Z,1008.42
2022-11-08T00:29:17.328Z,1008.41
2022-11-08T00:30:17.291Z,1008.44
2022-11-08T00:31:17.289Z,1008.45
2022-11-08T00:32:17.277Z,1008.45
2022-11-08T00:33:17.267Z,1008.45
2022-11-08T00:34:17.287Z,1008.44
2022-11-08T00:35:17.243Z,1008.45
2022-11-08T00:36:17.246Z,1008.46
2022-11-08T00:37:17.236Z,1008.49
2022-11-08T00:38:17.382Z,1008.48
2022-11-08T00:39:17.218Z,1008.52
2022-11-08T00:40:17.172Z,1008.50
2022-11-08T00:41:17.200Z,1008.48
2022-11-08T00:42:17.156Z,1008.48
2022-11-08T00:43:17.151Z,1008.46
2022-11-08T00:44:17.205Z,1008.49
2022-11-08T00:45:17.149Z,1008.45
2022-11-08T00:46:17.110Z,1008.45
2022-11-08T00:47:17.082Z,1008.48
2022-11-08T00:48:17.526Z,1008.47
2022-11-08T00:49:17.120Z,1008.48
2022-11-08T00:50:17.059Z,1008.49
2022-11-08T00:51:17.044Z,1008.45
2022-11-08T00:52:17.050Z,1008.47
2022-11-08T00:53:17.052Z,1008.47
2022-11-08T00:54:17.069Z,1008.48
2022-11-08T00:55:17.014Z,1008.45
2022-11-08T00:56:16.999Z,1008.44
2022-11-08T00:57:16.994Z,1008.44
2022-11-08T00:58:17.394Z,1008.40
2022-11-08T00:59:17.002Z,1008.42
2022-11-08T01:00:16.973Z,1008.40
2022-11-08T01:01:16.979Z,1008.45
2022-11-08T01:02:16.997Z,1008.41
2022-11-08T01:03:16.903Z,1008.36
2022-11-08T01:04:16.897Z,1008.36
2022-11-08T01:05:16.937Z,1008.38
2022-11-08T01:06:16.888Z,1008.35
2022-11-08T01:07:16.869Z,1008.34
2022-11-08T01:08:17.260Z,1008.37
2022-11-08T01:09:16.854Z,1008.35
2022-11-08T01:10:16.894Z,1008.40
2022-11-08T01:11:16.837Z,1008.40
2022-11-08T01:12:16.829Z,1008.39
2022-11-08T01:13:16.794Z,1008.34
2022-11-08T01:14:16.802Z,1008.35
2022-11-08T01:15:16.869Z,1008.41
2022-11-08T01:16:16.779Z,1008.38
2022-11-08T01:17:16.763Z,1008.42
2022-11-08T01:18:17.087Z,1008.44
2022-11-08T01:19:16.765Z,1008.36
2022-11-08T01:20:16.722Z,1008.40
2022-11-08T01:21:16.705Z,1008.36
2022-11-08T01:22:16.686Z,1008.36
2022-11-08T01:23:16.691Z,1008.38
2022-11-08T01:24:16.676Z,1008.38
2022-11-08T01:25:16.697Z,1008.37
2022-11-08T01:26:16.661Z,1008.39
2022-11-08T01:27:16.630Z,1008.39
2022-11-08T01:28:16.963Z,1008.44
2022-11-08T01:29:16.613Z,1008.39
2022-11-08T01:30:16.636Z,1008.36
2022-11-08T01:31:16.589Z,1008.37
2022-11-08T01:32:16.572Z,1008.33
2022-11-08T01:33:16.562Z,1008.32
2022-11-08T01:34:16.570Z,1008.30
2022-11-08T01:35:16.564Z,1008.35
2022-11-08T01:36:16.541Z,1008.40
2022-11-08T01:37:16.510Z,1008.36
2022-11-08T01:38:16.942Z,1008.42
2022-11-08T01:39:16.489Z,1008.43
2022-11-08T01:40:16.503Z,1008.43
2022-11-08T01:41:16.453Z,1008.42
2022-11-08T01:42:16.457Z,1008.41
2022-11-08T01:43:16.449Z,1008.42
2022-11-08T01:44:16.463Z,1008.43
2022-11-08T01:45:16.457Z,1008.38
2022-11-08T01:46:16.408Z,1008.42
2022-11-08T01:47:16.406Z,1008.43
2022-11-08T01:48:16.690Z,1008.45
2022-11-08T01:49:16.390Z,1008.48
2022-11-08T01:50:16.409Z,1008.48
2022-11-08T01:51:16.356Z,1008.43
2022-11-08T01:52:16.360Z,1008.42
2022-11-08T01:53:16.341Z,1008.40
2022-11-08T01:54:16.345Z,1008.41
2022-11-08T01:55:16.353Z,1008.38
2022-11-08T01:56:16.315Z,1008.36
2022-11-08T01:57:16.304Z,1008.36
2022-11-08T01:58:16.653Z,1008.38
2022-11-08T01:59:16.271Z,1008.33
2022-11-08T02:00:16.300Z,1008.29
2022-11-08T02:01:16.289Z,1008.30
2022-11-08T02:02:16.293Z,1008.33
2022-11-08T02:03:16.230Z,1008.27
2022-11-08T02:04:16.211Z,1008.28
2022-11-08T02:05:16.242Z,1008.24
2022-11-08T02:06:16.211Z,1008.24
2022-11-08T02:07:16.190Z,1008.28
2022-11-08T02:08:16.520Z,1008.31
2022-11-08T02:09:16.148Z,1008.31
2022-11-08T02:10:16.182Z,1008.29
2022-11-08T02:11:16.140Z,1008.32
2022-11-08T02:12:16.132Z,1008.32
2022-11-08T02:13:16.115Z,1008.34
2022-11-08T02:14:16.110Z,1008.30
2022-11-08T02:15:16.128Z,1008.28
2022-11-08T02:16:16.077Z,1008.35
2022-11-08T02:17:16.050Z,1008.30
2022-11-08T02:18:16.379Z,1008.30
2022-11-08T02:19:16.022Z,1008.34
2022-11-08T02:20:16.057Z,1008.29
2022-11-08T02:21:16.029Z,1008.32
2022-11-08T02:22:16.009Z,1008.27
2022-11-08T02:23:15.995Z,1008.33
2022-11-08T02:24:15.989Z,1008.32
2022-11-08T02:25:16.013Z,1008.35
2022-11-08T02:26:15.969Z,1008.35
2022-11-08T02:27:15.950Z,1008.33
2022-11-08T02:28:16.422Z,1008.34
2022-11-08T02:29:15.929Z,1008.33
2022-11-08T02:30:15.949Z,1008.35
2022-11-08T02:31:15.953Z,1008.29
2022-11-08T02:32:15.895Z,1008.30
2022-11-08T02:33:15.887Z,1008.35
2022-11-08T02:34:15.879Z,1008.32
2022-11-08T02:35:15.893Z,1008.22
2022-11-08T02:36:15.857Z,1008.21
2022-11-08T02:37:15.831Z,1008.24
2022-11-08T02:38:16.186Z,1008.22
2022-11-08T02:39:15.806Z,1008.18
2022-11-08T02:40:15.852Z,1008.22
2022-11-08T02:41:15.786Z,1008.22
2022-11-08T02:42:15.798Z,1008.19
2022-11-08T02:43:15.773Z,1008.21
2022-11-08T02:44:15.775Z,1008.17
2022-11-08T02:45:15.778Z,1008.27
2022-11-08T02:46:15.740Z,1008.28
2022-11-08T02:47:15.729Z,1008.21
2022-11-08T02:48:16.072Z,1008.25
2022-11-08T02:49:15.711Z,1008.20
2022-11-08T02:50:15.744Z,1008.22
2022-11-08T02:51:15.688Z,1008.18
2022-11-08T02:52:15.667Z,1008.19
2022-11-08T02:53:15.656Z,1008.23
2022-11-08T02:54:15.660Z,1008.21
2022-11-08T02:55:15.677Z,1008.15
2022-11-08T02:56:15.611Z,1008.18
2022-11-08T02:57:15.604Z,1008.23
2022-11-08T02:58:16.060Z,1008.23
2022-11-08T02:59:15.591Z,1008.25
2022-11-08T03:00:15.612Z,1008.24
2022-11-08T03:01:15.652Z,1008.21
2022-11-08T03:02:15.698Z,1008.23
2022-11-08T03:03:15.554Z,1008.24
2022-11-08T03:04:15.527Z,1008.22
2022-11-08T03:05:15.559Z,1008.20
2022-11-08T03:06:15.513Z,1008.22
2022-11-08T03:07:17.637Z,1008.22
2022-11-08T03:08:17.029Z,1008.24
2022-11-08T03:09:15.470Z,1008.21
2022-11-08T03:10:15.504Z,1008.19
2022-11-08T03:11:15.447Z,1008.14
2022-11-08T03:12:15.449Z,1008.15
2022-11-08T03:13:15.444Z,1008.12
2022-11-08T03:14:15.445Z,1008.13
2022-11-08T03:15:15.474Z,1008.10
2022-11-08T03:16:15.445Z,1008.16
2022-11-08T03:17:15.390Z,1008.18
2022-11-08T03:18:15.775Z,1008.17
2022-11-08T03:19:15.365Z,1008.17
2022-11-08T03:20:15.369Z,1008.17
2022-11-08T03:21:15.371Z,1008.17
2022-11-08T03:22:15.330Z,1008.20
2022-11-08T03:23:15.330Z,1008.18
2022-11-08T03:24:15.313Z,1008.20
2022-11-08T03:25:15.288Z,1008.20
2022-11-08T03:26:15.313Z,1008.23
2022-11-08T03:27:15.289Z,1008.21
2022-11-08T03:28:19.096Z,1008.28
2022-11-08T03:29:16.247Z,1008.19
2022-11-08T03:30:15.248Z,1008.22
2022-11-08T03:31:15.247Z,1008.24
2022-11-08T03:32:15.213Z,1008.22
2022-11-08T03:33:15.198Z,1008.19
2022-11-08T03:34:15.182Z,1008.23
2022-11-08T03:35:15.172Z,1008.23
2022-11-08T03:36:15.197Z,1008.25
2022-11-08T03:37:15.167Z,1008.25
2022-11-08T03:38:15.492Z,1008.30
2022-11-08T03:39:15.150Z,1008.25
2022-11-08T03:40:15.247Z,1008.29
2022-11-08T03:41:15.163Z,1008.28
2022-11-08T03:42:15.110Z,1008.28
2022-11-08T03:43:15.104Z,1008.32
2022-11-08T03:44:15.065Z,1008.29
2022-11-08T03:45:15.077Z,1008.31
2022-11-08T03:46:15.079Z,1008.31
2022-11-08T03:47:15.053Z,1008.33
2022-11-08T03:48:15.215Z,1008.34
2022-11-08T03:49:15.016Z,1008.29
2022-11-08T03:50:15.010Z,1008.32
2022-11-08T03:51:15.049Z,1008.33
2022-11-08T03:52:14.999Z,1008.32
2022-11-08T03:53:14.992Z,1008.29
2022-11-08T03:54:14.979Z,1008.28
2022-11-08T03:55:14.959Z,1008.23
2022-11-08T03:56:14.968Z,1008.24
2022-11-08T03:57:14.931Z,1008.27
2022-11-08T03:58:15.159Z,1008.34
2022-11-08T03:59:14.921Z,1008.34
2022-11-08T04:00:14.922Z,1008.31
2022-11-08T04:01:14.970Z,1008.31
2022-11-08T04:02:15.021Z,1008.33
2022-11-08T04:03:14.878Z,1008.31
2022-11-08T04:04:14.851Z,1008.31
2022-11-08T04:05:14.850Z,1008.28
2022-11-08T04:06:14.871Z,1008.34
2022-11-08T04:07:14.833Z,1008.33
2022-11-08T04:08:15.112Z,1008.33
2022-11-08T04:09:20.449Z,1008.28
2022-11-08T04:10:15.795Z,1008.30
2022-11-08T04:11:14.808Z,1008.31
2022-11-08T04:12:14.750Z,1008.26
2022-11-08T04:13:14.742Z,1008.23
2022-11-08T04:14:14.726Z,1008.30
2022-11-08T04:15:14.851Z,1008.30
2022-11-08T04:16:17.869Z,1008.30
2022-11-08T04:17:14.709Z,1008.26
2022-11-08T04:18:14.724Z,1008.24
2022-11-08T04:19:14.697Z,1008.33
2022-11-08T04:20:14.672Z,1008.32
2022-11-08T04:21:14.697Z,1008.27
2022-11-08T04:22:14.648Z,1008.33
2022-11-08T04:23:14.646Z,1008.34
2022-11-08T04:24:14.634Z,1008.35
2022-11-08T04:25:14.619Z,1008.33
2022-11-08T04:26:14.627Z,1008.31
2022-11-08T04:27:14.595Z,1008.32
2022-11-08T04:28:14.735Z,1008.30
2022-11-08T04:29:14.583Z,1008.30
2022-11-08T04:30:14.647Z,1008.29
2022-11-08T04:31:14.566Z,1008.31
2022-11-08T04:32:14.536Z,1008.29
2022-11-08T04:33:14.529Z,1008.27
2022-11-08T04:34:14.507Z,1008.30
2022-11-08T04:35:14.518Z,1008.26
2022-11-08T04:36:14.529Z,1008.22
2022-11-08T04:37:14.470Z,1008.23
2022-11-08T04:38:14.650Z,1008.26
2022-11-08T04:39:14.455Z,1008.20
2022-11-08T04:40:14.516Z,1008.28
2022-11-08T04:41:14.479Z,1008.25
2022-11-08T04:42:14.422Z,1008.26
2022-11-08T04:43:14.407Z,1008.22
2022-11-08T04:44:14.385Z,1008.26
2022-11-08T04:45:14.408Z,1008.25
2022-11-08T04:46:14.407Z,1008.24
2022-11-08T04:47:14.368Z,1008.23
2022-11-08T04:48:14.389Z,1008.22
2022-11-08T04:49:14.331Z,1008.20
2022-11-08T04:50:14.330Z,1008.24
2022-11-08T04:51:14.339Z,1008.22
2022-11-08T04:52:14.293Z,1008.27
2022-11-08T04:53:14.296Z,1008.25
2022-11-08T04:54:14.292Z,1008.24
2022-11-08T04:55:14.267Z,1008.23
2022-11-08T04:56:14.292Z,1008.23
2022-11-08T04:57:14.250Z,1008.22
2022-11-08T04:58:14.252Z,1008.21
2022-11-08T04:59:14.233Z,1008.19
2022-11-08T05:00:14.218Z,1008.19
2022-11-08T05:01:14.349Z,1008.16
2022-11-08T05:02:14.327Z,1008.16
2022-11-08T05:03:14.188Z,1008.17
2022-11-08T05:04:14.168Z,1008.16
2022-11-08T05:05:14.149Z,1008.14
2022-11-08T05:06:14.158Z,1008.14
2022-11-08T05:07:14.186Z,1008.16
2022-11-08T05:08:14.197Z,1008.17
2022-11-08T05:09:14.124Z,1008.09
2022-11-08T05:10:14.089Z,1008.12
2022-11-08T05:11:14.089Z,1008.15
2022-11-08T05:12:14.108Z,1008.10
2022-11-08T05:13:14.082Z,1008.12
2022-11-08T05:14:14.048Z,1008.11
2022-11-08T05:15:14.060Z,1008.14
2022-11-08T05:16:14.026Z,1008.12
2022-11-08T05:17:14.064Z,1008.09
2022-11-08T05:18:14.012Z,1008.11
2022-11-08T05:19:14.007Z,1008.06
2022-11-08T05:20:13.997Z,1008.14
2022-11-08T05:21:13.973Z,1008.09
2022-11-08T05:22:13.984Z,1008.09
2022-11-08T05:23:13.948Z,1008.13
2022-11-08T05:24:13.941Z,1008.12
2022-11-08T05:25:13.944Z,1008.11
2022-11-08T05:26:13.943Z,1008.11
2022-11-08T05:27:13.931Z,1008.11
2022-11-08T05:28:13.886Z,1008.13
2022-11-08T05:29:13.868Z,1008.18
2022-11-08T05:30:13.860Z,1008.19
2022-11-08T05:31:13.879Z,1008.20
2022-11-08T05:32:13.890Z,1008.16
2022-11-08T05:33:13.847Z,1008.21
2022-11-08T05:34:13.847Z,1008.20
2022-11-08T05:35:13.830Z,1008.23
2022-11-08T05:36:13.821Z,1008.24
2022-11-08T05:37:13.851Z,1008.19
2022-11-08T05:38:13.799Z,1008.22
2022-11-08T05:39:13.763Z,1008.17
2022-11-08T05:40:13.760Z,1008.17
2022-11-08T05:41:13.758Z,1008.17
2022-11-08T05:42:13.764Z,1008.19
2022-11-08T05:43:13.738Z,1008.19
2022-11-08T05:44:13.711Z,1008.21
2022-11-08T05:45:13.729Z,1008.18
2022-11-08T05:46:13.713Z,1008.18
2022-11-08T05:47:13.723Z,1008.18
2022-11-08T05:48:13.666Z,1008.17
2022-11-08T05:49:13.659Z,1008.17
2022-11-08T05:50:19.113Z,1008.21
2022-11-08T05:51:14.636Z,1008.22
2022-11-08T05:52:13.655Z,1008.21
2022-11-08T05:53:13.625Z,1008.25
2022-11-08T05:54:13.683Z,1008.26
2022-11-08T05:55:13.613Z,1008.30
2022-11-08T05:56:13.567Z,1008.30
2022-11-08T05:57:13.556Z,1008.30
2022-11-08T05:58:13.596Z,1008.26
2022-11-08T05:59:13.549Z,1008.24
2022-11-08T06:00:13.529Z,1008.24
2022-11-08T06:01:13.509Z,1008.23
2022-11-08T06:02:13.601Z,1008.26
2022-11-08T06:03:13.597Z,1008.24
2022-11-08T06:04:13.468Z,1008.22
2022-11-08T06:05:13.455Z,1008.25
2022-11-08T06:06:13.442Z,1008.27
2022-11-08T06:07:13.439Z,1008.27
2022-11-08T06:08:13.477Z,1008.32
2022-11-08T06:09:13.437Z,1008.27
2022-11-08T06:10:13.426Z,1008.31
2022-11-08T06:11:13.425Z,1008.32
2022-11-08T06:12:13.417Z,1008.32
2022-11-08T06:13:13.427Z,1008.29
2022-11-08T06:14:13.575Z,1008.34
2022-11-08T06:15:13.362Z,1008.29
2022-11-08T06:16:13.345Z,1008.29
2022-11-08T06:17:13.342Z,1008.29
2022-11-08T06:18:13.360Z,1008.31
2022-11-08T06:19:13.308Z,1008.29
2022-11-08T06:20:13.286Z,1008.32
2022-11-08T06:21:13.290Z,1008.27
2022-11-08T06:22:13.269Z,1008.28
2022-11-08T06:23:13.297Z,1008.30
2022-11-08T06:24:13.234Z,1008.32
2022-11-08T06:25:13.250Z,1008.30
2022-11-08T06:26:13.221Z,1008.33
2022-11-08T06:27:13.220Z,1008.33
2022-11-08T06:28:13.272Z,1008.23
2022-11-08T06:29:13.195Z,1008.27
2022-11-08T06:30:13.196Z,1008.30
2022-11-08T06:31:13.176Z,1008.28
2022-11-08T06:32:13.175Z,1008.30
2022-11-08T06:33:13.199Z,1008.28
2022-11-08T06:34:13.137Z,1008.35
2022-11-08T06:35:13.131Z,1008.34
2022-11-08T06:36:13.113Z,1008.35
2022-11-08T06:37:13.125Z,1008.36
2022-11-08T06:38:13.129Z,1008.38
2022-11-08T06:39:13.096Z,1008.43
2022-11-08T06:40:13.063Z,1008.44
2022-11-08T06:41:13.047Z,1008.44
2022-11-08T06:42:13.037Z,1008.36
2022-11-08T06:43:18.171Z,1008.36
2022-11-08T06:44:14.001Z,1008.34
2022-11-08T06:45:13.012Z,1008.36
2022-11-08T06:46:12.991Z,1008.37
2022-11-08T06:47:13.039Z,1008.39
2022-11-08T06:48:12.980Z,1008.38
2022-11-08T06:49:12.990Z,1008.34
2022-11-08T06:50:12.949Z,1008.38
2022-11-08T06:51:12.951Z,1008.41
2022-11-08T06:52:12.992Z,1008.38
2022-11-08T06:53:12.943Z,1008.37
2022-11-08T06:54:17.527Z,1008.38
2022-11-08T06:55:13.896Z,1008.35
2022-11-08T06:56:12.891Z,1008.36
2022-11-08T06:57:12.883Z,1008.42
2022-11-08T06:58:12.918Z,1008.34
2022-11-08T06:59:12.871Z,1008.35
2022-11-08T07:00:12.848Z,1008.34
2022-11-08T07:01:12.897Z,1008.38
2022-11-08T07:02:12.920Z,1008.34
2022-11-08T07:03:12.926Z,1008.39
2022-11-08T07:04:12.798Z,1008.39
2022-11-08T07:05:12.813Z,1008.35
2022-11-08T07:06:12.776Z,1008.38
2022-11-08T07:07:12.789Z,1008.37
2022-11-08T07:08:12.809Z,1008.40
2022-11-08T07:09:12.776Z,1008.38
2022-11-08T07:10:12.730Z,1008.34
2022-11-08T07:11:12.725Z,1008.32
2022-11-08T07:12:12.723Z,1008.31
2022-11-08T07:13:12.778Z,1008.36
2022-11-08T07:14:12.699Z,1008.34
2022-11-08T07:15:12.699Z,1008.31
2022-11-08T07:16:12.738Z,1008.34
2022-11-08T07:17:12.663Z,1008.30
2022-11-08T07:18:12.741Z,1008.30
2022-11-08T07:19:12.625Z,1008.26
2022-11-08T07:20:12.597Z,1008.27
2022-11-08T07:21:12.611Z,1008.30
2022-11-08T07:22:12.595Z,1008.31
2022-11-08T07:23:12.648Z,1008.32
2022-11-08T07:24:12.584Z,1008.34
2022-11-08T07:25:12.601Z,1008.33
2022-11-08T07:26:12.587Z,1008.31
2022-11-08T07:27:12.567Z,1008.32
2022-11-08T07:28:12.584Z,1008.34
2022-11-08T07:29:15.943Z,1008.38
2022-11-08T07:30:12.544Z,1008.31
2022-11-08T07:31:12.524Z,1008.35
2022-11-08T07:32:12.490Z,1008.35
2022-11-08T07:33:12.523Z,1008.31
2022-11-08T07:34:12.480Z,1008.32
2022-11-08T07:35:12.465Z,1008.30
2022-11-08T07:36:12.465Z,1008.34
2022-11-08T07:37:12.439Z,1008.31
2022-11-08T07:38:12.455Z,1008.24
2022-11-08T07:39:12.411Z,1008.26
2022-11-08T07:40:12.391Z,1008.24
2022-11-08T07:41:12.403Z,1008.24
2022-11-08T07:42:12.379Z,1008.25
2022-11-08T07:43:13.229Z,1008.19
2022-11-08T07:44:12.380Z,1008.26
2022-11-08T07:45:12.351Z,1008.21
2022-11-08T07:46:12.337Z,1008.22
2022-11-08T07:47:12.321Z,1008.28
2022-11-08T07:48:13.231Z,1008.31
2022-11-08T07:49:12.297Z,1008.28
2022-11-08T07:50:16.300Z,1008.30
2022-11-08T07:51:13.270Z,1008.28
2022-11-08T07:52:12.261Z,1008.34
2022-11-08T07:53:12.287Z,1008.28
2022-11-08T07:54:12.225Z,1008.30
2022-11-08T07:55:12.230Z,1008.29
2022-11-08T07:56:12.220Z,1008.35
2022-11-08T07:57:12.217Z,1008.33
2022-11-08T07:58:12.252Z,1008.35
2022-11-08T07:59:12.180Z,1008.39
2022-11-08T08:00:12.208Z,1008.34
2022-11-08T08:01:12.196Z,1008.33
2022-11-08T08:02:12.229Z,1008.33
2022-11-08T08:03:12.328Z,1008.34
2022-11-08T08:04:12.151Z,1008.31
2022-11-08T08:05:12.104Z,1008.33
2022-11-08T08:06:12.129Z,1008.27
2022-11-08T08:07:12.111Z,1008.26
2022-11-08T08:08:12.135Z,1008.29
2022-11-08T08:09:12.060Z,1008.25
2022-11-08T08:10:12.081Z,1008.27
2022-11-08T08:11:12.049Z,1008.27
2022-11-08T08:12:12.054Z,1008.28
2022-11-08T08:13:12.063Z,1008.28
2022-11-08T08:14:12.022Z,1008.29
2022-11-08T08:15:11.998Z,1008.25
2022-11-08T08:16:11.995Z,1008.24
2022-11-08T08:17:11.978Z,1008.19
2022-11-08T08:18:11.965Z,1008.18
2022-11-08T08:19:11.992Z,1008.17
2022-11-08T08:20:11.970Z,1008.14
2022-11-08T08:21:11.949Z,1008.14
2022-11-08T08:22:11.926Z,1008.12
2022-11-08T08:23:11.925Z,1008.10
2022-11-08T08:24:11.944Z,1008.12
2022-11-08T08:25:11.913Z,1008.11
2022-11-08T08:26:11.906Z,1008.06
2022-11-08T08:27:11.883Z,1008.05
2022-11-08T08:28:11.868Z,1008.05
2022-11-08T08:29:11.901Z,1008.04
2022-11-08T08:30:11.835Z,1008.03
2022-11-08T08:31:11.818Z,1007.96
2022-11-08T08:32:11.810Z,1007.99
2022-11-08T08:33:28.776Z,1008.00
2022-11-08T08:34:12.819Z,1007.99
2022-11-08T08:35:11.777Z,1007.99
2022-11-08T08:36:11.780Z,1008.05
2022-11-08T08:37:11.736Z,1007.99
2022-11-08T08:38:11.763Z,1007.98
2022-11-08T08:39:11.778Z,1008.01
2022-11-08T08:40:11.728Z,1008.01
2022-11-08T08:41:11.709Z,1008.00
2022-11-08T08:42:11.756Z,1007.99
2022-11-08T08:43:11.701Z,1007.97
2022-11-08T08:44:11.717Z,1007.97
2022-11-08T08:45:14.932Z,1007.91
2022-11-08T08:46:11.660Z,1007.95
2022-11-08T08:47:11.638Z,1007.95
2022-11-08T08:48:11.632Z,1007.95
2022-11-08T08:49:11.652Z,1007.98
2022-11-08T08:50:11.635Z,1008.00
2022-11-08T08:51:11.603Z,1007.96
2022-11-08T08:52:11.594Z,1007.97
2022-11-08T08:53:11.566Z,1007.99
2022-11-08T08:54:11.598Z,1008.01
2022-11-08T08:55:11.531Z,1008.00
2022-11-08T08:56:11.587Z,1007.97
2022-11-08T08:57:11.537Z,1007.96
2022-11-08T08:58:11.511Z,1007.96
2022-11-08T09:02:12.466Z,1007.92
2022-11-08T09:03:11.478Z,1007.92
2022-11-08T09:04:11.520Z,1007.94
2022-11-08T09:05:11.434Z,1007.92
2022-11-08T09:06:11.451Z,1007.92
2022-11-08T09:07:11.491Z,1007.80
2022-11-08T09:08:11.408Z,1007.90
2022-11-08T09:09:11.402Z,1007.88
2022-11-08T09:10:11.378Z,1007.88
2022-11-08T09:11:11.368Z,1007.84
2022-11-08T09:12:13.449Z,1007.84
2022-11-08T09:13:11.373Z,1007.89
2022-11-08T09:14:11.375Z,1007.84
2022-11-08T09:15:11.304Z,1007.85
2022-11-08T09:16:11.305Z,1007.87
2022-11-08T09:17:11.320Z,1007.84
2022-11-08T09:18:11.315Z,1007.81
2022-11-08T09:19:11.301Z,1007.87
2022-11-08T09:20:11.262Z,1007.85
2022-11-08T09:21:11.253Z,1007.89
2022-11-08T09:22:11.332Z,1007.82
2022-11-08T09:23:11.238Z,1007.86
2022-11-08T09:24:11.245Z,1007.87
2022-11-08T09:25:11.221Z,1007.84
2022-11-08T09:26:11.225Z,1007.80
2022-11-08T09:27:11.203Z,1007.81
2022-11-08T09:28:11.187Z,1007.85
2022-11-08T09:29:11.194Z,1007.87
2022-11-08T09:30:11.166Z,1007.86
2022-11-08T09:31:11.153Z,1007.88
2022-11-08T09:32:11.136Z,1007.85
2022-11-08T09:33:11.161Z,1007.85
2022-11-08T09:34:11.133Z,1007.83
2022-11-08T09:35:11.090Z,1007.79
2022-11-08T09:36:11.092Z,1007.84
2022-11-08T09:37:11.072Z,1007.89
2022-11-08T09:38:11.077Z,1007.89
2022-11-08T09:39:11.086Z,1007.86
2022-11-08T09:40:11.079Z,1007.82
2022-11-08T09:41:11.028Z,1007.85
2022-11-08T09:42:11.017Z,1007.82
2022-11-08T09:43:11.004Z,1007.85
2022-11-08T09:44:11.019Z,1007.87
2022-11-08T09:45:10.962Z,1007.85
2022-11-08T09:46:10.959Z,1007.86
2022-11-08T09:47:10.957Z,1007.85
2022-11-08T09:48:10.952Z,1007.88
2022-11-08T09:49:10.975Z,1007.82
2022-11-08T09:50:10.942Z,1007.88
2022-11-08T09:51:10.897Z,1007.85
2022-11-08T09:52:10.924Z,1007.86
2022-11-08T09:53:10.897Z,1007.88
2022-11-08T09:54:13.652Z,1007.85
2022-11-08T09:55:10.874Z,1007.86
2022-11-08T09:56:10.883Z,1007.85
2022-11-08T09:57:10.853Z,1007.87
2022-11-08T09:58:10.864Z,1007.84
2022-11-08T09:59:10.844Z,1007.85
2022-11-08T10:00:10.855Z,1007.84
2022-11-08T10:01:10.805Z,1007.79
2022-11-08T10:02:10.847Z,1007.88
2022-11-08T10:03:10.800Z,1007.81
2022-11-08T10:04:10.803Z,1007.80
2022-11-08T10:05:10.790Z,1007.82
2022-11-08T10:06:10.744Z,1007.82
2022-11-08T10:07:10.801Z,1007.84
2022-11-08T10:08:10.740Z,1007.80
2022-11-08T10:09:10.738Z,1007.79
2022-11-08T10:10:10.732Z,1007.82
2022-11-08T10:11:10.701Z,1007.83
2022-11-08T10:12:10.692Z,1007.85
2022-11-08T10:13:10.664Z,1007.84
2022-11-08T10:14:10.699Z,1007.85
2022-11-08T10:15:10.660Z,1007.81
2022-11-08T10:16:10.635Z,1007.81
2022-11-08T10:17:10.630Z,1007.81
2022-11-08T10:18:10.623Z,1007.80
2022-11-08T10:19:10.625Z,1007.80
2022-11-08T10:20:10.652Z,1007.77
2022-11-08T10:21:10.583Z,1007.76
2022-11-08T10:22:10.566Z,1007.79
2022-11-08T10:23:10.542Z,1007.72
2022-11-08T10:24:10.528Z,1007.68
2022-11-08T10:25:10.582Z,1007.71
2022-11-08T10:26:10.548Z,1007.71
2022-11-08T10:27:10.504Z,1007.69
2022-11-08T10:28:25.303Z,1007.72
2022-11-08T10:29:10.497Z,1007.69
2022-11-08T10:30:10.507Z,1007.70
2022-11-08T10:31:10.481Z,1007.67
2022-11-08T10:32:10.454Z,1007.66
2022-11-08T10:33:10.458Z,1007.69
2022-11-08T10:34:10.429Z,1007.62
2022-11-08T10:35:10.443Z,1007.64
2022-11-08T10:36:10.437Z,1007.59
2022-11-08T10:37:10.457Z,1007.57
2022-11-08T10:38:10.380Z,1007.53
2022-11-08T10:39:10.356Z,1007.58
2022-11-08T10:40:10.390Z,1007.55
2022-11-08T10:41:10.338Z,1007.57
2022-11-08T10:42:10.347Z,1007.51
2022-11-08T10:43:10.336Z,1007.52
2022-11-08T10:44:10.330Z,1007.48
2022-11-08T10:45:10.352Z,1007.47
2022-11-08T10:46:10.300Z,1007.45
2022-11-08T10:47:10.285Z,1007.39
2022-11-08T10:48:10.278Z,1007.43
2022-11-08T10:49:10.263Z,1007.39
2022-11-08T10:50:10.283Z,1007.45
2022-11-08T10:51:10.251Z,1007.44
2022-11-08T10:52:10.226Z,1007.42
2022-11-08T10:53:10.222Z,1007.38
2022-11-08T10:54:10.217Z,1007.40
2022-11-08T10:55:10.257Z,1007.37
2022-11-08T10:56:10.199Z,1007.37
2022-11-08T10:57:10.168Z,1007.35
2022-11-08T10:58:10.171Z,1007.34
2022-11-08T10:59:10.141Z,1007.30
2022-11-08T11:00:10.126Z,1007.32
2022-11-08T11:01:10.152Z,1007.37
2022-11-08T11:02:10.195Z,1007.32
2022-11-08T11:03:10.094Z,1007.30
2022-11-08T11:04:10.098Z,1007.26
2022-11-08T11:05:10.104Z,1007.25
2022-11-08T11:06:10.114Z,1007.29
2022-11-08T11:07:10.103Z,1007.23
2022-11-08T11:08:10.045Z,1007.21
2022-11-08T11:09:10.043Z,1007.24
2022-11-08T11:10:10.023Z,1007.12
2022-11-08T11:11:10.067Z,1007.17
2022-11-08T11:12:10.008Z,1007.13
2022-11-08T11:13:10.001Z,1007.13
2022-11-08T11:14:11.830Z,1007.14
2022-11-08T11:15:09.953Z,1007.13
2022-11-08T11:16:10.003Z,1007.12
2022-11-08T11:17:09.941Z,1007.11
2022-11-08T11:18:09.953Z,1007.08
2022-11-08T11:19:09.926Z,1007.11
2022-11-08T11:20:09.901Z,1007.11
2022-11-08T11:21:09.924Z,1007.09
2022-11-08T11:22:09.908Z,1007.14
2022-11-08T11:23:09.919Z,1007.12
2022-11-08T11:24:09.876Z,1007.09
2022-11-08T11:25:09.867Z,1007.11
2022-11-08T11:26:09.902Z,1007.07
2022-11-08T11:27:09.817Z,1007.09
2022-11-08T11:28:09.844Z,1007.03
2022-11-08T11:29:09.820Z,1007.02
2022-11-08T11:30:11.857Z,1007.05
2022-11-08T11:31:09.830Z,1007.00
2022-11-08T11:32:09.794Z,1007.02
2022-11-08T11:33:09.866Z,1006.96
2022-11-08T11:34:09.807Z,1006.92
2022-11-08T11:35:09.722Z,1006.90
2022-11-08T11:36:13.430Z,1006.91
2022-11-08T11:37:09.712Z,1006.86
2022-11-08T11:38:09.710Z,1006.89
2022-11-08T11:39:09.707Z,1006.92
2022-11-08T11:40:09.688Z,1006.89
2022-11-08T11:41:11.105Z,1006.95
2022-11-08T11:42:31.139Z,1006.95
2022-11-08T11:43:10.657Z,1006.98
2022-11-08T11:44:09.651Z,1006.84
2022-11-08T11:45:09.636Z,1006.85
2022-11-08T11:46:09.693Z,1006.87
2022-11-08T11:47:09.628Z,1006.88
2022-11-08T11:48:09.605Z,1006.91
2022-11-08T11:49:09.586Z,1006.90
2022-11-08T11:50:09.595Z,1006.87
2022-11-08T11:51:09.662Z,1006.92
2022-11-08T11:52:09.551Z,1006.95
2022-11-08T11:53:09.544Z,1006.87
2022-11-08T11:54:09.535Z,1006.90
2022-11-08T11:55:09.539Z,1006.84
2022-11-08T11:56:09.550Z,1006.83
2022-11-08T11:57:09.503Z,1006.85
2022-11-08T11:58:09.491Z,1006.82
2022-11-08T11:59:09.478Z,1006.84
2022-11-08T12:00:09.464Z,1006.83
2022-11-08T12:01:14.287Z,1006.78
2022-11-08T12:02:10.468Z,1006.80
2022-11-08T12:03:09.454Z,1006.81
2022-11-08T12:04:09.436Z,1006.75
2022-11-08T12:05:09.408Z,1006.74
2022-11-08T12:06:09.437Z,1006.72
2022-11-08T12:07:09.427Z,1006.71
2022-11-08T12:08:09.398Z,1006.76